createdAt,value
2022-08-26T00:01:58.270Z,18.86
2022-08-26T00:04:34.128Z,18.85
2022-08-26T00:07:06.596Z,18.85
2022-08-26T00:09:40.332Z,18.82
2022-08-26T00:12:13.535Z,18.79
2022-08-26T00:14:46.079Z,18.80
2022-08-26T00:17:18.719Z,18.80
2022-08-26T00:19:51.969Z,18.77
2022-08-26T00:22:26.240Z,18.73
2022-08-26T00:24:58.659Z,18.75
2022-08-26T00:27:33.900Z,18.70
2022-08-26T00:30:11.311Z,18.70
2022-08-26T00:32:44.103Z,18.69
2022-08-26T00:35:19.045Z,18.71
2022-08-26T00:37:51.672Z,18.67
2022-08-26T00:40:29.523Z,18.66
2022-08-26T00:43:03.263Z,18.66
2022-08-26T00:45:50.971Z,18.62
2022-08-26T00:48:27.907Z,18.63
2022-08-26T00:51:11.931Z,18.65
2022-08-26T00:54:03.983Z,18.62
2022-08-26T00:56:47.081Z,18.64
2022-08-26T00:59:20.572Z,18.66
2022-08-26T01:01:53.133Z,18.66
2022-08-26T01:04:26.110Z,18.66
2022-08-26T01:06:59.110Z,18.68
2022-08-26T01:09:32.591Z,18.69
2022-08-26T01:12:05.564Z,18.71
2022-08-26T01:14:40.302Z,18.71
2022-08-26T01:17:13.065Z,18.71
2022-08-26T01:19:49.736Z,18.72
2022-08-26T01:22:44.420Z,18.73
2022-08-26T01:25:19.465Z,18.69
2022-08-26T01:27:55.072Z,18.69
2022-08-26T01:30:31.184Z,18.70
2022-08-26T01:33:08.176Z,18.70
2022-08-26T01:35:40.815Z,18.71
2022-08-26T01:38:13.768Z,18.71
2022-08-26T01:40:46.963Z,18.68
2022-08-26T01:43:22.969Z,18.67
2022-08-26T01:45:56.920Z,18.68
2022-08-26T01:48:34.295Z,18.67
2022-08-26T01:51:09.689Z,18.69
2022-08-26T01:53:42.255Z,18.68
2022-08-26T01:56:19.670Z,18.70
2022-08-26T01:58:59.499Z,18.68
2022-08-26T02:01:32.640Z,18.69
2022-08-26T02:04:24.181Z,18.70
2022-08-26T02:06:57.442Z,18.67
2022-08-26T02:09:32.394Z,18.69
2022-08-26T02:12:15.713Z,18.68
2022-08-26T02:14:53.188Z,18.67
2022-08-26T02:17:33.418Z,18.65
2022-08-26T02:20:13.309Z,18.63
2022-08-26T02:22:48.267Z,18.63
2022-08-26T02:25:28.411Z,18.60
2022-08-26T02:28:00.943Z,18.54
2022-08-26T02:30:33.879Z,18.54
2022-08-26T02:33:07.478Z,18.52
2022-08-26T02:35:40.705Z,18.53
2022-08-26T02:38:13.381Z,18.53
2022-08-26T02:40:45.880Z,18.48
2022-08-26T02:43:31.499Z,18.45
2022-08-26T02:46:05.922Z,18.40
2022-08-26T02:48:38.870Z,18.38
2022-08-26T02:51:11.756Z,18.37
2022-08-26T02:53:45.727Z,18.32
2022-08-26T02:56:18.504Z,18.31
2022-08-26T02:58:51.154Z,18.27
2022-08-26T03:01:29.930Z,18.23
2022-08-26T03:04:05.228Z,18.20
2022-08-26T03:06:38.487Z,18.20
2022-08-26T03:09:18.505Z,18.17
2022-08-26T03:11:52.109Z,18.15
2022-08-26T03:14:25.059Z,18.14
2022-08-26T03:16:57.528Z,18.15
2022-08-26T03:19:31.996Z,18.16
2022-08-26T03:22:07.487Z,18.18
2022-08-26T03:24:39.887Z,18.18
2022-08-26T03:27:12.968Z,18.16
2022-08-26T03:30:05.422Z,18.15
2022-08-26T03:32:37.883Z,18.18
2022-08-26T03:35:14.067Z,18.19
2022-08-26T03:37:46.488Z,18.21
2022-08-26T03:40:20.587Z,18.24
2022-08-26T03:42:53.204Z,18.27
2022-08-26T03:45:25.771Z,18.31
2022-08-26T03:47:58.732Z,18.32
2022-08-26T03:50:34.211Z,18.27
2022-08-26T03:53:08.315Z,18.27
2022-08-26T03:55:45.824Z,18.25
2022-08-26T03:58:20.388Z,18.26
2022-08-26T04:00:55.744Z,18.25
2022-08-26T04:03:46.905Z,18.30
2022-08-26T04:06:19.330Z,18.31
2022-08-26T04:08:53.567Z,18.33
2022-08-26T04:11:31.312Z,18.36
2022-08-26T04:14:13.344Z,18.33
2022-08-26T04:16:46.396Z,18.36
2022-08-26T04:19:21.496Z,18.37
2022-08-26T04:21:54.357Z,18.31
2022-08-26T04:24:27.878Z,18.32
2022-08-26T04:27:02.434Z,18.25
2022-08-26T04:29:36.125Z,18.23
2022-08-26T04:32:08.753Z,18.26
2022-08-26T04:34:41.870Z,18.26
2022-08-26T04:37:14.280Z,18.21
2022-08-26T04:39:51.120Z,18.20
2022-08-26T04:42:26.269Z,18.18
2022-08-26T04:44:59.301Z,18.10
2022-08-26T04:47:32.478Z,18.11
2022-08-26T04:50:06.967Z,18.07
2022-08-26T04:52:39.984Z,18.06
2022-08-26T04:55:13.463Z,18.09
2022-08-26T04:57:46.542Z,18.05
2022-08-26T05:00:19.543Z,18.10
2022-08-26T05:02:51.927Z,18.08
2022-08-26T05:05:24.322Z,18.09
2022-08-26T05:07:56.841Z,18.15
2022-08-26T05:10:30.009Z,18.18
2022-08-26T05:13:03.631Z,18.21
2022-08-26T05:15:44.755Z,18.25
2022-08-26T05:18:21.167Z,18.25
2022-08-26T05:20:54.849Z,18.25
2022-08-26T05:23:31.359Z,18.27
2022-08-26T05:26:08.127Z,18.27
2022-08-26T05:28:40.634Z,18.33
2022-08-26T05:31:17.360Z,18.29
2022-08-26T05:33:50.402Z,18.35
2022-08-26T05:36:27.109Z,18.32
2022-08-26T05:39:00.185Z,18.31
2022-08-26T05:41:36.489Z,18.32
2022-08-26T05:44:12.659Z,18.37
2022-08-26T05:46:46.640Z,18.41
2022-08-26T05:49:19.152Z,18.40
2022-08-26T05:51:51.836Z,18.40
2022-08-26T05:54:24.293Z,18.45
2022-08-26T05:56:56.680Z,18.57
2022-08-26T05:59:29.568Z,18.54
2022-08-26T06:02:06.178Z,18.64
2022-08-26T06:04:38.883Z,18.74
2022-08-26T06:07:11.778Z,18.68
2022-08-26T06:09:45.552Z,18.79
2022-08-26T06:12:18.512Z,18.85
2022-08-26T06:14:51.169Z,18.72
2022-08-26T06:17:23.928Z,18.67
2022-08-26T06:19:58.165Z,18.75
2022-08-26T06:22:59.576Z,18.79
2022-08-26T06:25:41.851Z,18.83
2022-08-26T06:28:15.969Z,18.77
2022-08-26T06:30:48.455Z,18.77
2022-08-26T06:33:22.571Z,18.72
2022-08-26T06:35:55.397Z,18.71
2022-08-26T06:38:28.520Z,18.84
2022-08-26T06:41:00.951Z,18.91
2022-08-26T06:43:34.468Z,18.86
2022-08-26T06:46:10.047Z,19.02
2022-08-26T06:48:46.004Z,18.87
2022-08-26T06:51:23.648Z,18.91
2022-08-26T06:53:59.496Z,18.98
2022-08-26T06:56:40.856Z,18.89
2022-08-26T06:59:13.281Z,18.99
2022-08-26T07:01:45.846Z,18.95
2022-08-26T07:04:20.134Z,18.95
2022-08-26T07:06:55.283Z,18.91
2022-08-26T07:09:32.348Z,19.08
2022-08-26T07:12:06.794Z,18.99
2022-08-26T07:14:39.941Z,19.22
2022-08-26T07:17:16.682Z,19.41
2022-08-26T07:19:49.147Z,19.54
2022-08-26T07:22:21.748Z,19.70
2022-08-26T07:24:54.825Z,19.63
2022-08-26T07:27:28.228Z,19.81
2022-08-26T07:30:01.085Z,19.71
2022-08-26T07:32:34.656Z,19.74
2022-08-26T07:35:07.456Z,19.64
2022-08-26T07:37:39.916Z,19.80
2022-08-26T07:40:12.411Z,19.96
2022-08-26T07:42:44.896Z,20.02
2022-08-26T07:45:18.068Z,20.12
2022-08-26T07:47:51.679Z,20.31
2022-08-26T07:50:49.882Z,20.32
2022-08-26T07:53:18.056Z,20.16
2022-08-26T07:55:52.361Z,20.19
2022-08-26T07:58:24.888Z,20.33
2022-08-26T08:00:58.331Z,20.21
2022-08-26T08:03:31.824Z,20.09
2022-08-26T08:06:05.084Z,20.17
2022-08-26T08:08:41.294Z,20.08
2022-08-26T08:11:13.866Z,20.15
2022-08-26T08:13:46.888Z,20.00
2022-08-26T08:16:19.413Z,20.27
2022-08-26T08:18:51.912Z,20.27
2022-08-26T08:21:25.396Z,20.35
2022-08-26T08:23:58.478Z,20.63
2022-08-26T08:26:31.179Z,20.70
2022-08-26T08:29:04.144Z,20.68
2022-08-26T08:31:56.739Z,20.73
2022-08-26T08:34:29.357Z,20.63
2022-08-26T08:37:01.824Z,20.54
2022-08-26T08:39:36.167Z,20.53
2022-08-26T08:42:08.881Z,20.41
2022-08-26T08:44:52.123Z,20.69
2022-08-26T08:47:33.903Z,20.62
2022-08-26T08:50:20.780Z,20.70
2022-08-26T08:53:16.449Z,20.66
2022-08-26T08:55:58.041Z,20.69
2022-08-26T08:58:39.223Z,20.68
2022-08-26T09:01:17.867Z,20.44
2022-08-26T09:04:13.375Z,20.46
2022-08-26T09:06:54.323Z,20.53
2022-08-26T09:09:38.299Z,20.27
2022-08-26T09:12:16.706Z,20.57
2022-08-26T09:14:56.659Z,20.40
2022-08-26T09:17:50.870Z,20.67
2022-08-26T09:20:41.587Z,20.73
2022-08-26T09:23:18.197Z,20.99
2022-08-26T09:25:57.121Z,21.06
2022-08-26T09:28:31.540Z,20.84
2022-08-26T09:31:21.398Z,21.02
2022-08-26T09:34:34.476Z,20.97
2022-08-26T09:37:08.156Z,20.87
2022-08-26T09:39:42.284Z,20.98
2022-08-26T09:42:23.136Z,20.94
2022-08-26T09:45:06.105Z,20.93
2022-08-26T09:47:47.974Z,20.89
2022-08-26T09:50:29.167Z,20.57
2022-08-26T09:53:09.970Z,20.89
2022-08-26T09:55:49.030Z,20.87
2022-08-26T09:58:30.552Z,20.93
2022-08-26T10:01:15.736Z,20.85
2022-08-26T10:03:50.127Z,20.72
2022-08-26T10:06:26.706Z,20.97
2022-08-26T10:09:02.719Z,21.16
2022-08-26T10:11:47.220Z,21.03
2022-08-26T10:14:31.780Z,20.99
2022-08-26T10:17:20.833Z,20.84
2022-08-26T10:19:59.309Z,20.99
2022-08-26T10:22:44.397Z,21.23
2022-08-26T10:25:31.450Z,21.27
2022-08-26T10:28:10.992Z,21.19
2022-08-26T10:30:56.080Z,21.21
2022-08-26T10:33:28.785Z,21.39
2022-08-26T10:36:30.103Z,21.18
2022-08-26T10:39:07.574Z,21.13
2022-08-26T10:41:44.161Z,20.98
2022-08-26T10:44:19.583Z,20.86
2022-08-26T10:47:09.952Z,21.00
2022-08-26T10:49:45.832Z,20.89
2022-08-26T10:52:29.438Z,21.01
2022-08-26T10:55:10.564Z,20.68
2022-08-26T10:57:46.580Z,20.66
2022-08-26T11:00:41.449Z,20.82
2022-08-26T11:03:45.485Z,20.74
2022-08-26T11:06:18.022Z,20.75
2022-08-26T11:08:57.865Z,20.59
2022-08-26T11:11:41.257Z,20.48
2022-08-26T11:14:29.875Z,20.37
2022-08-26T11:17:04.043Z,20.38
2022-08-26T11:20:01.523Z,20.43
2022-08-26T11:22:47.680Z,20.30
2022-08-26T11:25:30.066Z,20.30
2022-08-26T11:28:04.520Z,20.27
2022-08-26T11:30:41.425Z,20.34
2022-08-26T11:33:54.303Z,20.32
2022-08-26T11:36:39.984Z,20.31
2022-08-26T11:39:31.073Z,20.37
2022-08-26T11:42:34.226Z,20.11
2022-08-26T11:45:25.466Z,20.12
2022-08-26T11:47:58.022Z,20.20
2022-08-26T11:50:30.546Z,20.21
2022-08-26T11:53:06.113Z,20.19
2022-08-26T11:55:43.296Z,20.25
2022-08-26T11:58:16.417Z,20.06
2022-08-26T12:00:56.109Z,20.08
2022-08-26T12:03:47.215Z,20.11
2022-08-26T12:06:28.410Z,20.19
2022-08-26T12:09:10.648Z,20.23
2022-08-26T12:11:43.772Z,20.23
2022-08-26T12:14:20.680Z,20.28
2022-08-26T12:16:56.690Z,20.41
2022-08-26T12:19:33.717Z,20.34
2022-08-26T12:22:26.481Z,20.31
2022-08-26T12:25:03.412Z,20.31
2022-08-26T12:27:41.532Z,20.44
2022-08-26T12:30:21.228Z,20.24
2022-08-26T12:33:21.912Z,20.62
2022-08-26T12:35:56.762Z,20.82
2022-08-26T12:38:29.887Z,21.03
2022-08-26T12:41:02.448Z,21.01
2022-08-26T12:43:43.653Z,20.96
2022-08-26T12:46:24.388Z,20.90
2022-08-26T12:49:01.101Z,20.91
2022-08-26T12:51:35.239Z,20.67
2022-08-26T12:54:14.188Z,20.35
2022-08-26T12:56:46.747Z,20.59
2022-08-26T12:59:23.602Z,20.75
2022-08-26T13:01:56.566Z,20.87
2022-08-26T13:04:36.752Z,20.53
2022-08-26T13:07:27.429Z,20.54
2022-08-26T13:10:00.940Z,20.75
2022-08-26T13:12:37.088Z,20.84
2022-08-26T13:15:09.711Z,20.66
2022-08-26T13:17:42.158Z,20.73
2022-08-26T13:20:14.576Z,20.69
2022-08-26T13:22:58.541Z,20.79
2022-08-26T13:25:31.658Z,20.60
2022-08-26T13:28:04.084Z,20.56
2022-08-26T13:30:36.512Z,20.57
2022-08-26T13:33:10.915Z,20.32
2022-08-26T13:35:44.876Z,20.05
2022-08-26T13:38:18.552Z,19.90
2022-08-26T13:41:06.108Z,19.91
2022-08-26T13:43:38.584Z,19.89
2022-08-26T13:46:11.180Z,19.90
2022-08-26T13:48:44.804Z,19.93
2022-08-26T13:51:18.578Z,19.75
2022-08-26T13:53:51.921Z,19.65
2022-08-26T13:56:27.371Z,19.45
2022-08-26T13:59:01.300Z,19.04
2022-08-26T14:01:35.084Z,18.82
2022-08-26T14:04:08.485Z,18.76
2022-08-26T14:06:40.876Z,18.39
2022-08-26T14:09:13.802Z,18.45
2022-08-26T14:11:53.799Z,18.31
2022-08-26T14:14:27.391Z,18.33
2022-08-26T14:17:00.742Z,18.38
2022-08-26T14:19:33.281Z,18.34
2022-08-26T14:22:05.755Z,18.39
2022-08-26T14:24:38.216Z,18.48
2022-08-26T14:27:11.703Z,18.57
2022-08-26T14:29:44.160Z,18.71
2022-08-26T14:32:24.068Z,18.92
2022-08-26T14:34:56.520Z,19.02
2022-08-26T14:37:28.909Z,19.23
2022-08-26T14:40:01.580Z,19.41
2022-08-26T14:42:34.629Z,19.52
2022-08-26T14:45:09.569Z,19.59
2022-08-26T14:47:42.506Z,19.58
2022-08-26T14:50:18.588Z,19.55
2022-08-26T14:53:10.553Z,19.43
2022-08-26T14:55:43.161Z,19.40
2022-08-26T14:58:15.705Z,19.50
2022-08-26T15:00:48.153Z,19.58
2022-08-26T15:03:20.731Z,19.61
2022-08-26T15:05:53.436Z,19.85
2022-08-26T15:08:26.057Z,20.02
2022-08-26T15:10:58.822Z,20.18
2022-08-26T15:13:31.341Z,20.36
2022-08-26T15:16:04.189Z,20.45
2022-08-26T15:18:37.356Z,20.53
2022-08-26T15:21:10.358Z,20.39
2022-08-26T15:23:47.821Z,20.41
2022-08-26T15:26:21.980Z,20.20
2022-08-26T15:28:54.504Z,20.22
2022-08-26T15:31:31.156Z,20.24
2022-08-26T15:34:06.918Z,20.56
2022-08-26T15:36:39.473Z,20.49
2022-08-26T15:39:12.928Z,20.62
2022-08-26T15:41:46.028Z,20.61
2022-08-26T15:44:19.136Z,20.62
2022-08-26T15:46:55.314Z,20.56
2022-08-26T15:49:30.773Z,20.49
2022-08-26T15:52:05.494Z,20.86
2022-08-26T15:54:38.468Z,20.88
2022-08-26T15:57:12.409Z,20.84
2022-08-26T15:59:46.017Z,20.76
2022-08-26T16:02:18.485Z,20.60
2022-08-26T16:04:50.983Z,20.50
2022-08-26T16:07:23.785Z,20.63
2022-08-26T16:09:56.678Z,20.43
2022-08-26T16:12:29.097Z,20.30
2022-08-26T16:15:01.586Z,20.26
2022-08-26T16:17:34.065Z,20.24
2022-08-26T16:20:07.972Z,20.17
2022-08-26T16:22:40.465Z,20.27
2022-08-26T16:25:12.918Z,20.10
2022-08-26T16:27:45.365Z,20.18
2022-08-26T16:30:20.050Z,20.17
2022-08-26T16:32:52.475Z,20.01
2022-08-26T16:35:25.903Z,19.96
2022-08-26T16:37:58.397Z,19.87
2022-08-26T16:40:31.322Z,19.72
2022-08-26T16:43:04.519Z,19.79
2022-08-26T16:45:38.173Z,19.77
2022-08-26T16:48:14.341Z,19.93
2022-08-26T16:50:46.775Z,19.77
2022-08-26T16:53:19.328Z,19.88
2022-08-26T16:55:51.856Z,19.83
2022-08-26T16:58:24.263Z,19.80
2022-08-26T17:00:57.287Z,19.80
2022-08-26T17:03:29.687Z,19.75
2022-08-26T17:06:02.162Z,19.65
2022-08-26T17:08:36.261Z,19.55
2022-08-26T17:11:09.788Z,19.62
2022-08-26T17:13:42.252Z,19.51
2022-08-26T17:16:15.351Z,19.58
2022-08-26T17:18:47.864Z,19.35
2022-08-26T17:21:20.325Z,19.48
2022-08-26T17:23:52.932Z,19.38
2022-08-26T17:26:26.351Z,19.46
2022-08-26T17:28:59.973Z,19.34
2022-08-26T17:31:32.504Z,19.32
2022-08-26T17:34:05.839Z,19.35
2022-08-26T17:36:38.300Z,19.19
2022-08-26T17:39:13.285Z,19.23
2022-08-26T17:41:46.406Z,19.21
2022-08-26T17:44:18.801Z,19.14
2022-08-26T17:46:51.296Z,19.17
2022-08-26T17:49:23.777Z,19.15
2022-08-26T17:51:58.608Z,19.06
2022-08-26T17:54:31.720Z,19.04
2022-08-26T17:57:04.816Z,19.01
2022-08-26T17:59:43.022Z,19.06
2022-08-26T18:02:16.031Z,19.02
2022-08-26T18:04:48.831Z,19.03
2022-08-26T18:07:21.256Z,19.00
2022-08-26T18:09:53.677Z,18.93
2022-08-26T18:12:26.136Z,18.95
2022-08-26T18:15:01.633Z,18.98
2022-08-26T18:17:34.480Z,18.94
2022-08-26T18:20:12.389Z,18.92
2022-08-26T18:22:46.199Z,18.86
2022-08-26T18:25:18.946Z,18.87
2022-08-26T18:27:51.563Z,18.82
2022-08-26T18:30:24.163Z,18.77
2022-08-26T18:32:56.655Z,18.72
2022-08-26T18:35:30.287Z,18.71
2022-08-26T18:38:11.277Z,18.64
2022-08-26T18:40:45.543Z,18.66
2022-08-26T18:43:18.040Z,18.65
2022-08-26T18:46:01.442Z,18.62
2022-08-26T18:48:34.477Z,18.57
2022-08-26T18:51:07.096Z,18.53
2022-08-26T18:53:42.834Z,18.54
2022-08-26T18:56:18.065Z,18.54
2022-08-26T18:58:51.572Z,18.56
2022-08-26T19:01:27.326Z,18.48
2022-08-26T19:04:02.405Z,18.49
2022-08-26T19:06:35.975Z,18.46
2022-08-26T19:09:10.311Z,18.42
2022-08-26T19:11:45.259Z,18.40
2022-08-26T19:14:18.791Z,18.41
2022-08-26T19:16:52.525Z,18.32
2022-08-26T19:19:25.068Z,18.36
2022-08-26T19:21:57.873Z,18.34
2022-08-26T19:24:30.445Z,18.34
2022-08-26T19:27:03.275Z,18.31
2022-08-26T19:29:35.915Z,18.29
2022-08-26T19:32:08.743Z,18.26
2022-08-26T19:34:41.136Z,18.27
2022-08-26T19:37:13.652Z,18.23
2022-08-26T19:39:47.187Z,18.21
2022-08-26T19:42:19.667Z,18.19
2022-08-26T19:45:07.668Z,18.16
2022-08-26T19:47:48.426Z,18.14
2022-08-26T19:50:22.028Z,18.13
2022-08-26T19:52:54.653Z,18.14
2022-08-26T19:55:27.312Z,18.14
2022-08-26T19:57:59.763Z,18.14
2022-08-26T20:00:33.527Z,18.14
2022-08-26T20:03:06.710Z,18.11
2022-08-26T20:05:43.086Z,18.11
2022-08-26T20:08:21.958Z,18.08
2022-08-26T20:10:55.655Z,18.08
2022-08-26T20:13:28.367Z,18.06
2022-08-26T20:16:00.901Z,18.05
2022-08-26T20:18:52.046Z,18.07
2022-08-26T20:21:27.773Z,18.03
2022-08-26T20:24:07.116Z,17.94
2022-08-26T20:26:41.394Z,17.92
2022-08-26T20:29:16.279Z,17.92
2022-08-26T20:31:49.319Z,17.93
2022-08-26T20:34:22.228Z,17.88
2022-08-26T20:36:54.716Z,17.89
2022-08-26T20:39:29.801Z,17.84
2022-08-26T20:42:02.644Z,17.82
2022-08-26T20:44:35.097Z,17.79
2022-08-26T20:47:08.375Z,17.78
2022-08-26T20:49:41.192Z,17.77
2022-08-26T20:52:14.937Z,17.76
2022-08-26T20:54:47.332Z,17.76
2022-08-26T20:57:22.157Z,17.71
2022-08-26T20:59:54.577Z,17.71
2022-08-26T21:02:28.120Z,17.67
2022-08-26T21:05:00.637Z,17.66
2022-08-26T21:07:33.294Z,17.61
2022-08-26T21:10:06.101Z,17.68
2022-08-26T21:12:38.494Z,17.61
2022-08-26T21:15:11.071Z,17.59
2022-08-26T21:17:43.493Z,17.55
2022-08-26T21:20:16.111Z,17.52
2022-08-26T21:22:48.604Z,17.49
2022-08-26T21:25:21.097Z,17.45
2022-08-26T21:27:53.552Z,17.49
2022-08-26T21:30:25.965Z,17.57
2022-08-26T21:32:58.394Z,17.42
2022-08-26T21:35:30.884Z,17.41
2022-08-26T21:38:03.386Z,17.38
2022-08-26T21:40:35.860Z,17.41
2022-08-26T21:43:08.377Z,17.39
2022-08-26T21:45:45.550Z,17.45
2022-08-26T21:48:18.559Z,17.42
2022-08-26T21:50:51.104Z,17.41
2022-08-26T21:53:24.032Z,17.45
2022-08-26T21:55:56.482Z,17.47
2022-08-26T21:58:28.904Z,17.48
2022-08-26T22:01:01.765Z,17.48
2022-08-26T22:03:35.186Z,17.48
2022-08-26T22:06:23.509Z,17.44
2022-08-26T22:08:56.298Z,17.44
2022-08-26T22:11:28.867Z,17.40
2022-08-26T22:14:01.396Z,17.37
2022-08-26T22:16:33.884Z,17.40
2022-08-26T22:19:06.716Z,17.40
2022-08-26T22:21:39.573Z,17.42
2022-08-26T22:24:12.453Z,17.37
2022-08-26T22:26:45.289Z,17.34
2022-08-26T22:29:18.719Z,17.36
2022-08-26T22:31:51.334Z,17.31
2022-08-26T22:34:23.776Z,17.26
2022-08-26T22:36:56.247Z,17.30
2022-08-26T22:39:28.695Z,17.25
2022-08-26T22:42:01.341Z,17.25
2022-08-26T22:44:36.411Z,17.17
2022-08-26T22:47:08.817Z,17.10
2022-08-26T22:49:41.388Z,17.01
2022-08-26T22:52:13.829Z,16.92
2022-08-26T22:54:46.302Z,16.85
2022-08-26T22:57:19.421Z,16.75
2022-08-26T22:59:51.832Z,16.68
2022-08-26T23:02:24.294Z,16.55
2022-08-26T23:04:56.701Z,16.45
2022-08-26T23:07:29.144Z,16.38
2022-08-26T23:10:03.941Z,16.26
2022-08-26T23:12:39.258Z,16.20
2022-08-26T23:15:12.235Z,16.13
2022-08-26T23:17:44.788Z,16.05
2022-08-26T23:20:19.451Z,15.97
2022-08-26T23:22:51.940Z,15.89
2022-08-26T23:25:25.348Z,15.82
2022-08-26T23:27:59.761Z,15.76
2022-08-26T23:30:34.632Z,15.72
2022-08-26T23:33:07.131Z,15.64
2022-08-26T23:35:40.396Z,15.62
2022-08-26T23:38:14.245Z,15.60
2022-08-26T23:40:47.652Z,15.57
2022-08-26T23:43:21.779Z,15.55
2022-08-26T23:45:54.244Z,15.51
2022-08-26T23:48:26.691Z,15.45
2022-08-26T23:51:17.855Z,15.36
2022-08-26T23:53:50.426Z,15.26
2022-08-26T23:56:22.893Z,15.20
2022-08-26T23:58:55.459Z,15.14
